Huvudsida
METAR-TAF:

METAR-TAF

Flygplatser :

Bergens flygplats. Flesland

Bergen, Norge

latitud: 60-17N, longitud: 005-14E, höjd: 5 m

Aktuellt väderrapport

Denna rapport gjordes för 11 minuter sedan, klockan 20:20 UTC
Vind 8 kt från nord/nordväst
Temperatur 13°C
Fuktighet 58%
Tryck 1030 hPa
Sikt 10 km eller mer
Inga moln under 1 500 m eller inga cumulonimbus

METAR: ENBR 292020Z 34008KT CAVOK 13/05 Q1030 RMK WIND 1200FT 03009KT

Tid: 22:31 (20:31 UTC)

Väderprognos

Prognos gäller från 29 kl. 18 UTC till 30 kl. 18 UTC
Vind 10 kt från nord/nordväst
Sikt 10 km eller mer
Inga moln under 1 500 m eller inga cumulonimbus
Blir
från 29 kl. 18 UTC till 29 kl. 20 UTC
Vind 5 kt varierande vindriktning
Blir
från 30 kl. 14 UTC till 30 kl. 16 UTC
Vind 10 kt från nord/nordväst

TAF: ENBR 2918/3018 34010KT CAVOK BECMG 2918/2920 VRB05KT BECMG 3014/3016 34010KT

Aktuella väderrapporter och prognoser från 4000 flygplatser (METAR- och TAF-rapporter).

De tillgängliga stationerna syns som gula och röda prickar på kartan.

För musen över prickarna för att se namnen på stationerna.

Klicka sedan för att få väderrapporter och prognoser.

För att ändra kartan: Klicka på de gröna knapparna med ett svart kors på för att zooma in; den gröna knappen med ett streck på för att zooma ut; eller på de gröna pilarna för angränsande kartor.


METAR-TAF: